Disclaimer

Please do not use the information listed here in-flight or in-navigation, as they are not provided to us by the airports but are provided by volunteers, so they might be outdated.

Search


Regions


Airport information page

Radio informations:
Tower (TWR) - 118.1 MHz
Automatic Terminal Information Service (ATIS) - 135.55 MHz
Approach (APP) - 118.9 MHz

Airport informations:
Latitude: 49° 37' 35.67" N
Longitude: 006° 12' 41.46" E
Elevation: 1234 feet - 376 meters
Operating hours: Remarks
Operating agency: Civil government, landing fees and diplomatic clearance may be required
Timezone: UTC+1(+2DT) - Last Sunday in March to last Sunday in October
Fuel: Jet A1+, Jet A1 with icing inhibitor.

100/130 MIL Spec, low lead, aviation gasoline (BLUE)

Runway information:
06/24 - 13123 x 197 feet< - >4000 x 60 meters

Recent METARs:
ELLX 201420Z 09008KT 050V140 9999 BKN023 02/M02 Q1003 NOSIG
ELLX 201450Z AUTO 08008KT 050V110 9999 SCT021/// 02/M02 Q1003 NOSIG
ELLX 201520Z 09007KT 070V140 9999 BKN033 02/M02 Q1004 NOSIG

Airport on the map: